createdAt,value
2023-07-11T00:01:37.664Z,77.06
2023-07-11T00:04:06.426Z,77.72
2023-07-11T00:06:34.921Z,78.46
2023-07-11T00:09:04.783Z,79.34
2023-07-11T00:11:33.165Z,79.99
2023-07-11T00:14:01.751Z,80.08
2023-07-11T00:16:30.284Z,79.46
2023-07-11T00:18:58.629Z,75.87
2023-07-11T00:21:26.975Z,73.94
2023-07-11T00:24:04.742Z,77.13
2023-07-11T00:26:36.329Z,78.36
2023-07-11T00:29:17.125Z,77.46
2023-07-11T00:31:45.461Z,78.74
2023-07-11T00:34:13.936Z,79.93
2023-07-11T00:36:42.233Z,76.72
2023-07-11T00:39:13.652Z,73.98
2023-07-11T00:41:43.706Z,71.12
2023-07-11T00:44:15.703Z,70.27
2023-07-11T00:46:45.456Z,70.63
2023-07-11T00:49:18.750Z,70.95
2023-07-11T00:51:53.543Z,74.15
2023-07-11T00:54:32.945Z,72.33
2023-07-11T00:57:06.737Z,73.73
2023-07-11T00:59:35.597Z,72.38
2023-07-11T01:02:09.182Z,72.37
2023-07-11T01:04:39.422Z,71.04
2023-07-11T01:07:11.730Z,74.76
2023-07-11T01:09:40.121Z,71.79
2023-07-11T01:12:14.064Z,71.13
2023-07-11T01:14:44.339Z,71.58
2023-07-11T01:17:31.769Z,70.83
2023-07-11T01:20:03.099Z,70.47
2023-07-11T01:22:34.927Z,70.12
2023-07-11T01:25:08.412Z,69.68
2023-07-11T01:27:37.113Z,69.92
2023-07-11T01:30:08.804Z,70.00
2023-07-11T01:32:38.993Z,69.97
2023-07-11T01:35:08.323Z,70.57
2023-07-11T01:37:38.749Z,71.49
2023-07-11T01:40:10.469Z,71.82
2023-07-11T01:42:39.751Z,72.25
2023-07-11T01:45:11.449Z,71.80
2023-07-11T01:47:40.478Z,71.62
2023-07-11T01:50:10.129Z,71.16
2023-07-11T01:52:39.908Z,70.63
2023-07-11T01:55:11.451Z,70.58
2023-07-11T01:57:39.869Z,70.16
2023-07-11T02:00:11.050Z,69.90
2023-07-11T02:02:39.201Z,70.43
2023-07-11T02:05:08.882Z,70.30
2023-07-11T02:07:39.399Z,70.13
2023-07-11T02:10:09.805Z,70.20
2023-07-11T02:12:38.192Z,69.65
2023-07-11T02:15:07.631Z,70.45
2023-07-11T02:17:37.033Z,70.40
2023-07-11T02:20:07.351Z,69.96
2023-07-11T02:22:35.680Z,70.63
2023-07-11T02:25:06.077Z,71.89
2023-07-11T02:27:34.458Z,72.63
2023-07-11T02:30:02.797Z,73.17
2023-07-11T02:32:31.185Z,73.57
2023-07-11T02:35:00.052Z,73.91
2023-07-11T02:37:28.382Z,74.21
2023-07-11T02:39:56.714Z,74.37
2023-07-11T02:42:26.467Z,74.65
2023-07-11T02:44:54.780Z,74.62
2023-07-11T02:47:23.172Z,74.86
2023-07-11T02:49:51.485Z,74.88
2023-07-11T02:52:19.793Z,75.17
2023-07-11T02:54:48.112Z,75.74
2023-07-11T02:57:16.549Z,75.00
2023-07-11T02:59:47.550Z,74.52
2023-07-11T03:02:15.875Z,74.88
2023-07-11T03:04:44.162Z,74.67
2023-07-11T03:07:12.499Z,74.45
2023-07-11T03:09:40.854Z,74.55
2023-07-11T03:12:10.591Z,74.82
2023-07-11T03:14:39.270Z,75.06
2023-07-11T03:17:09.011Z,75.06
2023-07-11T03:19:38.541Z,74.81
2023-07-11T03:22:06.968Z,74.66
2023-07-11T03:24:35.405Z,74.28
2023-07-11T03:27:03.781Z,74.50
2023-07-11T03:29:32.061Z,74.87
2023-07-11T03:32:00.390Z,74.75
2023-07-11T03:34:30.151Z,74.46
2023-07-11T03:36:58.544Z,75.16
2023-07-11T03:39:26.826Z,74.58
2023-07-11T03:41:55.216Z,74.86
2023-07-11T03:44:23.533Z,74.68
2023-07-11T03:46:51.896Z,74.10
2023-07-11T03:49:20.227Z,73.76
2023-07-11T03:51:49.924Z,73.41
2023-07-11T03:54:18.592Z,72.84
2023-07-11T03:56:46.954Z,72.70
2023-07-11T03:59:15.264Z,72.38
2023-07-11T04:01:43.549Z,71.99
2023-07-11T04:04:12.040Z,71.22
2023-07-11T04:06:40.466Z,71.68
2023-07-11T04:09:10.227Z,71.10
2023-07-11T04:11:38.557Z,71.15
2023-07-11T04:14:12.366Z,71.46
2023-07-11T04:16:40.858Z,71.21
2023-07-11T04:19:09.150Z,70.03
2023-07-11T04:21:37.669Z,69.90
2023-07-11T04:24:06.905Z,70.18
2023-07-11T04:26:36.575Z,70.21
2023-07-11T04:29:04.920Z,69.89
2023-07-11T04:31:33.303Z,71.62
2023-07-11T04:34:01.757Z,71.01
2023-07-11T04:36:30.133Z,71.02
2023-07-11T04:38:58.550Z,70.77
2023-07-11T04:41:26.902Z,71.45
2023-07-11T04:43:56.619Z,71.65
2023-07-11T04:46:25.186Z,71.92
2023-07-11T04:48:53.658Z,71.88
2023-07-11T04:51:22.063Z,72.33
2023-07-11T04:53:50.390Z,72.06
2023-07-11T04:56:18.732Z,72.52
2023-07-11T04:58:47.094Z,72.89
2023-07-11T05:01:22.256Z,72.41
2023-07-11T05:03:51.575Z,73.00
2023-07-11T05:06:19.897Z,72.39
2023-07-11T05:08:48.239Z,72.53
2023-07-11T05:11:18.718Z,73.63
2023-07-11T05:13:49.667Z,74.20
2023-07-11T05:16:22.603Z,74.45
2023-07-11T05:18:51.826Z,74.29
2023-07-11T05:21:21.807Z,74.01
2023-07-11T05:23:50.763Z,74.27
2023-07-11T05:26:20.823Z,75.11
2023-07-11T05:28:49.683Z,75.84
2023-07-11T05:31:20.543Z,75.35
2023-07-11T05:33:49.102Z,75.32
2023-07-11T05:36:27.151Z,75.49
2023-07-11T05:38:56.759Z,74.48
2023-07-11T05:41:25.433Z,75.11
2023-07-11T05:43:53.777Z,74.96
2023-07-11T05:46:24.210Z,74.67
2023-07-11T05:48:53.289Z,73.15
2023-07-11T05:51:22.675Z,71.94
2023-07-11T05:53:51.030Z,71.01
2023-07-11T05:56:20.831Z,71.52
2023-07-11T05:58:51.646Z,71.34
2023-07-11T06:01:24.458Z,70.73
2023-07-11T06:04:05.586Z,69.97
2023-07-11T06:06:43.111Z,70.55
2023-07-11T06:09:15.149Z,69.88
2023-07-11T06:11:44.438Z,70.11
2023-07-11T06:14:13.235Z,68.80
2023-07-11T06:16:44.795Z,67.63
2023-07-11T06:19:14.218Z,66.40
2023-07-11T06:21:43.206Z,65.40
2023-07-11T06:24:11.522Z,64.65
2023-07-11T06:26:40.000Z,64.12
2023-07-11T06:29:08.305Z,64.80
2023-07-11T06:31:36.796Z,64.40
2023-07-11T06:34:06.570Z,62.88
2023-07-11T06:36:34.917Z,63.81
2023-07-11T06:39:03.265Z,63.65
2023-07-11T06:41:31.703Z,62.79
2023-07-11T06:43:59.992Z,62.10
2023-07-11T06:46:28.455Z,60.01
2023-07-11T06:48:59.256Z,58.93
2023-07-11T06:51:29.847Z,59.01
2023-07-11T06:53:58.565Z,59.30
2023-07-11T06:56:27.791Z,57.84
2023-07-11T06:58:56.397Z,58.80
2023-07-11T07:01:35.535Z,58.78
2023-07-11T07:04:06.995Z,58.70
2023-07-11T07:06:37.257Z,58.95
2023-07-11T07:09:06.308Z,59.15
2023-07-11T07:11:36.621Z,59.34
2023-07-11T07:14:07.757Z,59.00
2023-07-11T07:16:37.179Z,58.91
2023-07-11T07:19:06.233Z,58.71
2023-07-11T07:21:36.308Z,58.21
2023-07-11T07:24:05.013Z,58.66
2023-07-11T07:26:33.879Z,57.77
2023-07-11T07:29:02.681Z,57.49
2023-07-11T07:31:32.054Z,57.06
2023-07-11T07:34:00.568Z,56.80
2023-07-11T07:36:28.924Z,56.32
2023-07-11T07:38:58.604Z,56.41
2023-07-11T07:41:28.210Z,56.93
2023-07-11T07:43:56.542Z,57.40
2023-07-11T07:46:25.064Z,57.20
2023-07-11T07:48:53.637Z,55.18
2023-07-11T07:51:22.952Z,54.72
2023-07-11T07:53:51.328Z,55.11
2023-07-11T07:56:24.488Z,54.85
2023-07-11T07:58:53.042Z,54.80
2023-07-11T08:01:22.976Z,54.09
2023-07-11T08:03:51.896Z,54.05
2023-07-11T08:06:21.577Z,54.46
2023-07-11T08:08:51.524Z,54.13
2023-07-11T08:11:23.181Z,54.40
2023-07-11T08:16:31.558Z,53.77
2023-07-11T08:19:05.856Z,54.13
2023-07-11T08:21:36.389Z,54.48
2023-07-11T08:24:06.379Z,54.31
2023-07-11T08:26:36.331Z,54.03
2023-07-11T08:29:13.229Z,55.17
2023-07-11T08:31:53.639Z,54.07
2023-07-11T08:34:22.014Z,53.83
2023-07-11T08:36:50.373Z,52.97
2023-07-11T08:39:18.805Z,53.25
2023-07-11T08:41:51.796Z,53.19
2023-07-11T08:44:31.383Z,53.40
2023-07-11T08:47:05.767Z,52.56
2023-07-11T08:49:48.588Z,53.39
2023-07-11T08:52:19.910Z,53.64
2023-07-11T08:54:55.186Z,54.05
2023-07-11T08:57:30.502Z,53.51
2023-07-11T09:00:08.554Z,54.03
2023-07-11T09:02:47.401Z,53.75
2023-07-11T09:05:21.298Z,54.19
2023-07-11T09:07:53.630Z,54.62
2023-07-11T09:10:48.685Z,55.48
2023-07-11T09:14:00.807Z,54.71
2023-07-11T09:16:42.932Z,54.53
2023-07-11T09:19:28.399Z,55.84
2023-07-11T09:22:09.346Z,55.36
2023-07-11T09:24:47.564Z,54.53
2023-07-11T09:27:23.677Z,54.62
2023-07-11T09:29:54.831Z,53.15
2023-07-11T09:32:32.414Z,52.50
2023-07-11T09:35:17.548Z,52.45
2023-07-11T09:37:52.283Z,51.56
2023-07-11T09:40:32.196Z,52.05
2023-07-11T09:43:02.110Z,52.24
2023-07-11T09:45:35.175Z,52.21
2023-07-11T09:48:13.041Z,52.64
2023-07-11T09:51:10.761Z,52.16
2023-07-11T09:53:44.424Z,52.13
2023-07-11T09:56:15.444Z,52.77
2023-07-11T09:58:49.605Z,52.85
2023-07-11T10:01:25.733Z,52.90
2023-07-11T10:03:58.861Z,52.31
2023-07-11T10:09:18.964Z,53.45
2023-07-11T10:11:58.140Z,53.89
2023-07-11T10:14:32.575Z,53.90
2023-07-11T10:17:14.038Z,52.95
2023-07-11T10:19:42.488Z,51.54
2023-07-11T10:22:19.429Z,52.78
2023-07-11T10:24:48.361Z,52.53
2023-07-11T10:27:32.252Z,51.47
2023-07-11T10:30:02.473Z,51.37
2023-07-11T10:32:40.149Z,50.74
2023-07-11T10:35:15.706Z,50.66
2023-07-11T10:37:47.033Z,50.42
2023-07-11T10:40:23.450Z,51.70
2023-07-11T10:43:04.338Z,51.42
2023-07-11T10:45:38.996Z,51.10
2023-07-11T10:48:25.789Z,51.16
2023-07-11T10:50:59.424Z,50.94
2023-07-11T10:53:33.734Z,50.84
2023-07-11T10:56:07.323Z,50.57
2023-07-11T10:58:36.502Z,50.27
2023-07-11T11:01:16.031Z,50.39
2023-07-11T11:03:48.599Z,50.49
2023-07-11T11:06:41.586Z,50.59
2023-07-11T11:09:17.319Z,50.93
2023-07-11T11:11:57.908Z,50.44
2023-07-11T11:14:34.413Z,51.34
2023-07-11T11:17:18.744Z,51.06
2023-07-11T11:20:08.730Z,51.68
2023-07-11T11:22:47.964Z,51.78
2023-07-11T11:25:27.795Z,52.05
2023-07-11T11:28:12.669Z,51.80
2023-07-11T11:30:53.058Z,52.35
2023-07-11T11:33:33.838Z,52.26
2023-07-11T11:36:10.468Z,52.27
2023-07-11T11:38:58.933Z,51.63
2023-07-11T11:41:37.834Z,52.63
2023-07-11T11:49:41.393Z,51.48
2023-07-11T11:52:13.358Z,51.74
2023-07-11T11:54:45.253Z,52.67
2023-07-11T11:57:22.649Z,53.56
2023-07-11T11:59:52.016Z,53.38
2023-07-11T12:02:31.777Z,54.09
2023-07-11T12:05:03.793Z,52.42
2023-07-11T12:07:43.155Z,52.62
2023-07-11T12:10:25.815Z,54.44
2023-07-11T12:13:21.433Z,52.81
2023-07-11T12:15:55.926Z,53.25
2023-07-11T12:18:43.349Z,54.24
2023-07-11T12:21:43.153Z,53.52
2023-07-11T12:24:47.611Z,53.63
2023-07-11T12:28:02.331Z,53.78
2023-07-11T12:30:44.650Z,53.63
2023-07-11T12:33:35.546Z,53.43
2023-07-11T12:36:41.102Z,53.36
2023-07-11T12:39:24.276Z,53.82
2023-07-11T12:42:09.324Z,55.30
2023-07-11T12:44:40.326Z,54.45
2023-07-11T12:47:18.198Z,55.07
2023-07-11T12:49:49.457Z,53.93
2023-07-11T12:52:20.693Z,54.93
2023-07-11T12:54:50.841Z,55.43
2023-07-11T12:57:24.429Z,54.38
2023-07-11T12:59:53.058Z,55.33
2023-07-11T13:02:27.245Z,54.23
2023-07-11T13:05:00.320Z,54.27
2023-07-11T13:07:33.617Z,55.03
2023-07-11T13:10:04.749Z,54.05
2023-07-11T13:12:38.785Z,54.69
2023-07-11T13:15:15.139Z,54.73
2023-07-11T13:17:45.001Z,55.64
2023-07-11T13:20:21.813Z,55.74
2023-07-11T13:22:50.804Z,55.91
2023-07-11T13:25:28.185Z,55.82
2023-07-11T13:27:58.021Z,55.41
2023-07-11T13:30:35.874Z,55.65
2023-07-11T13:35:53.686Z,55.86
2023-07-11T13:38:22.201Z,56.00
2023-07-11T13:40:56.538Z,55.93
2023-07-11T13:43:26.629Z,56.35
2023-07-11T13:45:55.297Z,55.25
2023-07-11T13:48:29.539Z,55.80
2023-07-11T13:51:20.616Z,55.32
2023-07-11T13:53:52.514Z,54.85
2023-07-11T13:56:21.006Z,55.10
2023-07-11T13:58:53.522Z,55.30
2023-07-11T14:01:26.774Z,54.74
2023-07-11T14:03:56.871Z,54.87
2023-07-11T14:06:25.463Z,55.16
2023-07-11T14:08:53.781Z,55.04
2023-07-11T14:11:28.159Z,55.17
2023-07-11T14:13:58.958Z,54.54
2023-07-11T14:16:27.669Z,54.59
2023-07-11T14:18:56.794Z,54.89
2023-07-11T14:21:25.205Z,55.67
2023-07-11T14:23:53.564Z,56.20
2023-07-11T14:26:21.950Z,56.33
2023-07-11T14:28:50.760Z,56.12
2023-07-11T14:31:23.233Z,56.19
2023-07-11T14:33:51.634Z,56.22
2023-07-11T14:36:20.092Z,57.37
2023-07-11T14:38:48.414Z,56.38
2023-07-11T14:41:16.811Z,57.04
2023-07-11T14:43:45.140Z,56.95
2023-07-11T14:46:13.841Z,57.11
2023-07-11T14:48:43.728Z,56.73
2023-07-11T14:51:13.068Z,57.43
2023-07-11T14:53:43.354Z,56.97
2023-07-11T14:58:51.446Z,56.53
2023-07-11T15:01:19.887Z,57.20
2023-07-11T15:16:30.188Z,58.18
2023-07-11T15:19:00.000Z,57.65
2023-07-11T15:21:28.315Z,58.13
2023-07-11T15:23:56.682Z,58.27
2023-07-11T15:26:25.973Z,58.00
2023-07-11T15:28:55.111Z,57.89
2023-07-11T15:31:23.789Z,58.07
2023-07-11T15:33:52.498Z,58.23
2023-07-11T15:36:22.216Z,58.19
2023-07-11T15:38:50.816Z,59.01
2023-07-11T15:41:20.095Z,58.77
2023-07-11T15:43:48.586Z,58.75
2023-07-11T15:46:22.950Z,59.22
2023-07-11T15:48:54.251Z,59.08
2023-07-11T15:51:24.288Z,58.62
2023-07-11T15:53:53.293Z,58.81
2023-07-11T15:56:21.622Z,59.70
2023-07-11T15:58:50.285Z,59.92
2023-07-11T16:01:18.628Z,59.71
2023-07-11T16:03:47.143Z,59.59
2023-07-11T16:06:18.840Z,59.48
2023-07-11T16:08:48.573Z,59.52
2023-07-11T16:11:18.524Z,59.26
2023-07-11T16:13:47.272Z,59.35
2023-07-11T16:16:18.725Z,59.27
2023-07-11T16:18:47.381Z,59.16
2023-07-11T16:21:16.976Z,58.55
2023-07-11T16:23:45.376Z,58.83
2023-07-11T16:26:21.145Z,59.13
2023-07-11T16:28:51.252Z,59.17
2023-07-11T16:31:19.978Z,59.85
2023-07-11T16:33:48.479Z,60.05
2023-07-11T16:36:18.524Z,60.60
2023-07-11T16:38:46.970Z,60.50
2023-07-11T16:41:15.331Z,60.77
2023-07-11T16:43:45.091Z,60.77
2023-07-11T16:46:19.457Z,60.18
2023-07-11T16:48:47.921Z,60.69
2023-07-11T16:51:23.757Z,60.80
2023-07-11T16:53:52.161Z,60.61
2023-07-11T16:56:20.555Z,60.29
2023-07-11T16:58:50.275Z,60.54
2023-07-11T17:01:21.837Z,60.41
2023-07-11T17:03:50.554Z,60.98
2023-07-11T17:06:27.165Z,61.02
2023-07-11T17:08:56.938Z,60.98
2023-07-11T17:11:25.904Z,61.12
2023-07-11T17:13:56.124Z,61.00
2023-07-11T17:16:28.099Z,61.11
2023-07-11T17:19:02.395Z,61.14
2023-07-11T17:21:30.757Z,60.70
2023-07-11T17:23:59.444Z,60.84
2023-07-11T17:26:27.756Z,60.97
2023-07-11T17:28:57.427Z,60.88
2023-07-11T17:31:25.884Z,60.90
2023-07-11T17:33:54.373Z,60.78
2023-07-11T17:36:22.723Z,61.08
2023-07-11T17:38:51.139Z,61.44
2023-07-11T17:44:03.079Z,62.09
2023-07-11T17:49:07.267Z,62.95
2023-07-11T17:51:36.220Z,63.05
2023-07-11T17:54:04.859Z,63.29
2023-07-11T17:56:52.246Z,63.49
2023-07-11T17:59:21.523Z,63.80
2023-07-11T18:01:51.326Z,63.87
2023-07-11T18:04:19.911Z,63.87
2023-07-11T18:06:48.440Z,63.91
2023-07-11T18:09:16.901Z,63.94
2023-07-11T18:11:45.427Z,64.17
2023-07-11T18:14:13.760Z,63.93
2023-07-11T18:16:42.325Z,63.66
2023-07-11T18:19:12.973Z,63.57
2023-07-11T18:21:41.094Z,63.21
2023-07-11T18:24:09.482Z,62.96
2023-07-11T18:26:37.824Z,62.47
2023-07-11T18:29:06.155Z,61.66
2023-07-11T18:31:34.613Z,61.00
2023-07-11T18:34:02.992Z,60.41
2023-07-11T18:36:34.429Z,60.56
2023-07-11T18:39:03.226Z,60.75
2023-07-11T18:41:31.622Z,60.33
2023-07-11T18:44:00.025Z,60.30
2023-07-11T18:46:28.402Z,60.14
2023-07-11T18:48:56.709Z,60.12
2023-07-11T18:51:29.047Z,59.98
2023-07-11T18:53:58.724Z,59.81
2023-07-11T18:56:28.748Z,59.25
2023-07-11T18:58:57.132Z,58.95
2023-07-11T19:01:25.626Z,59.17
2023-07-11T19:03:53.978Z,58.86
2023-07-11T19:06:22.299Z,58.18
2023-07-11T19:08:50.582Z,57.86
2023-07-11T19:11:20.268Z,57.25
2023-07-11T19:13:48.602Z,56.01
2023-07-11T19:16:22.674Z,55.38
2023-07-11T19:18:51.512Z,54.94
2023-07-11T19:21:20.005Z,54.69
2023-07-11T19:23:48.351Z,54.93
2023-07-11T19:26:20.076Z,54.67
2023-07-11T19:28:48.510Z,54.90
2023-07-11T19:31:17.921Z,54.84
2023-07-11T19:33:46.426Z,54.99
2023-07-11T19:36:21.989Z,55.36
2023-07-11T19:38:50.362Z,55.54
2023-07-11T19:41:20.606Z,56.02
2023-07-11T19:43:49.551Z,56.13
2023-07-11T19:46:22.294Z,56.40
2023-07-11T19:48:51.802Z,56.43
2023-07-11T19:51:20.175Z,56.53
2023-07-11T19:53:48.496Z,56.82
2023-07-11T19:56:23.806Z,57.29
2023-07-11T19:58:53.001Z,57.61
2023-07-11T20:01:21.526Z,57.76
2023-07-11T20:03:52.324Z,57.74
2023-07-11T20:06:24.113Z,57.57
2023-07-11T20:08:54.090Z,57.69
2023-07-11T20:11:23.871Z,57.85
2023-07-11T20:13:52.172Z,58.35
2023-07-11T20:16:23.061Z,58.28
2023-07-11T20:18:52.164Z,58.57
2023-07-11T20:21:24.171Z,58.64
2023-07-11T20:23:53.708Z,59.00
2023-07-11T20:26:26.627Z,59.21
2023-07-11T20:28:57.947Z,59.44
2023-07-11T20:31:26.961Z,59.81
2023-07-11T20:33:55.414Z,60.16
2023-07-11T20:36:26.931Z,60.28
2023-07-11T20:38:59.224Z,60.73
2023-07-11T20:41:28.993Z,61.35
2023-07-11T20:44:00.558Z,61.21
2023-07-11T20:46:29.520Z,61.27
2023-07-11T20:49:00.858Z,61.62
2023-07-11T20:51:29.764Z,61.80
2023-07-11T20:53:58.148Z,61.82
2023-07-11T20:56:28.212Z,61.60
2023-07-11T20:58:56.558Z,61.85
2023-07-11T21:01:25.982Z,61.82
2023-07-11T21:03:54.472Z,62.23
2023-07-11T21:06:35.134Z,62.20
2023-07-11T21:09:05.778Z,62.47
2023-07-11T21:11:35.505Z,62.86
2023-07-11T21:14:03.967Z,62.88
2023-07-11T21:16:35.279Z,63.26
2023-07-11T21:19:05.386Z,63.46
2023-07-11T21:21:35.641Z,63.83
2023-07-11T21:24:03.972Z,63.77
2023-07-11T21:26:33.055Z,64.33
2023-07-11T21:29:04.594Z,64.79
2023-07-11T21:31:33.563Z,64.84
2023-07-11T21:34:02.422Z,65.36
2023-07-11T21:36:31.441Z,65.57
2023-07-11T21:39:00.810Z,66.05
2023-07-11T21:41:29.164Z,66.10
2023-07-11T21:43:57.516Z,66.85
2023-07-11T21:46:31.019Z,67.13
2023-07-11T21:49:00.197Z,67.49
2023-07-11T21:51:32.048Z,67.36
2023-07-11T21:54:00.972Z,67.81
2023-07-11T21:56:30.715Z,68.20
2023-07-11T21:59:02.306Z,68.18
2023-07-11T22:01:32.733Z,68.32
2023-07-11T22:04:02.197Z,68.14
2023-07-11T22:06:32.003Z,68.07
2023-07-11T22:09:00.543Z,68.18
2023-07-11T22:11:29.047Z,68.21
2023-07-11T22:13:57.725Z,68.23
2023-07-11T22:16:28.358Z,67.87
2023-07-11T22:18:58.352Z,68.10
2023-07-11T22:21:28.266Z,68.21
2023-07-11T22:23:58.444Z,68.14
2023-07-11T22:26:32.068Z,68.08
2023-07-11T22:29:02.674Z,67.85
2023-07-11T22:31:31.784Z,67.76
2023-07-11T22:34:01.660Z,67.80
2023-07-11T22:36:30.097Z,67.46
2023-07-11T22:38:58.453Z,67.34
2023-07-11T22:41:26.867Z,67.28
2023-07-11T22:43:55.298Z,67.26
2023-07-11T22:46:23.851Z,67.36
2023-07-11T22:48:53.712Z,67.29
2023-07-11T22:51:23.481Z,67.09
2023-07-11T22:53:51.785Z,67.29
2023-07-11T22:56:22.105Z,67.38
2023-07-11T22:58:51.484Z,67.27
2023-07-11T23:01:22.314Z,67.54
2023-07-11T23:03:51.205Z,67.64
2023-07-11T23:06:24.991Z,67.92
2023-07-11T23:08:54.385Z,68.11
2023-07-11T23:11:24.943Z,68.58
2023-07-11T23:13:53.205Z,68.67
2023-07-11T23:16:28.855Z,69.22
2023-07-11T23:18:58.194Z,69.52
2023-07-11T23:21:28.672Z,69.90
2023-07-11T23:23:57.075Z,69.78
2023-07-11T23:26:26.769Z,69.74
2023-07-11T23:28:56.197Z,69.61
2023-07-11T23:31:25.658Z,69.80
2023-07-11T23:33:54.237Z,69.98
2023-07-11T23:36:27.471Z,70.26
2023-07-11T23:38:57.023Z,70.68
2023-07-11T23:41:26.211Z,70.96
2023-07-11T23:43:54.607Z,71.52
2023-07-11T23:46:27.260Z,71.46
2023-07-11T23:48:55.908Z,71.73
2023-07-11T23:51:28.778Z,71.48
2023-07-11T23:53:57.425Z,71.69
2023-07-11T23:56:28.298Z,71.88
2023-07-11T23:58:59.801Z,72.71
